createdAt,value
2018-05-17T00:02:18.002Z,12.00
2018-05-17T00:04:46.348Z,12.00
2018-05-17T00:07:14.066Z,11.90
2018-05-17T00:09:41.679Z,11.90
2018-05-17T00:12:09.387Z,11.90
2018-05-17T00:14:37.074Z,11.90
2018-05-17T00:17:04.655Z,11.90
2018-05-17T00:19:32.207Z,11.90
2018-05-17T00:21:59.835Z,11.90
2018-05-17T00:24:27.404Z,11.80
2018-05-17T00:26:54.967Z,11.80
2018-05-17T00:29:22.596Z,11.90
2018-05-17T00:31:50.915Z,11.70
2018-05-17T00:34:18.655Z,11.70
2018-05-17T00:36:46.216Z,11.80
2018-05-17T00:39:13.838Z,11.80
2018-05-17T00:41:42.143Z,11.90
2018-05-17T00:44:09.712Z,11.90
2018-05-17T00:46:37.263Z,11.70
2018-05-17T00:49:04.811Z,11.70
2018-05-17T00:51:33.161Z,11.70
2018-05-17T00:54:00.736Z,11.60
2018-05-17T00:56:29.103Z,11.40
2018-05-17T00:58:57.430Z,11.40
2018-05-17T01:01:25.145Z,11.40
2018-05-17T01:03:53.490Z,11.30
2018-05-17T01:06:21.163Z,11.30
2018-05-17T01:08:48.730Z,11.40
2018-05-17T01:11:16.283Z,11.30
2018-05-17T01:13:43.982Z,11.30
2018-05-17T01:16:11.662Z,11.30
2018-05-17T01:18:39.285Z,11.20
2018-05-17T01:21:06.879Z,11.20
2018-05-17T01:23:34.444Z,11.30
2018-05-17T01:26:02.000Z,11.10
2018-05-17T01:28:29.559Z,11.10
2018-05-17T01:30:57.176Z,11.00
2018-05-17T01:33:24.707Z,11.10
2018-05-17T01:35:53.238Z,11.10
2018-05-17T01:38:25.629Z,11.00
2018-05-17T01:40:53.246Z,11.00
2018-05-17T01:43:20.896Z,11.00
2018-05-17T01:45:48.674Z,10.90
2018-05-17T01:48:16.202Z,10.90
2018-05-17T01:50:43.772Z,10.80
2018-05-17T01:53:11.397Z,10.70
2018-05-17T01:55:38.967Z,10.70
2018-05-17T01:58:06.510Z,10.60
2018-05-17T02:00:34.192Z,10.60
2018-05-17T02:03:01.755Z,10.70
2018-05-17T02:05:29.327Z,10.70
2018-05-17T02:07:56.886Z,10.80
2018-05-17T02:10:25.318Z,10.70
2018-05-17T02:12:52.977Z,10.60
2018-05-17T02:15:20.671Z,10.60
2018-05-17T02:17:48.243Z,10.50
2018-05-17T02:20:15.788Z,10.50
2018-05-17T02:22:43.355Z,10.50
2018-05-17T02:25:11.013Z,10.60
2018-05-17T02:27:38.706Z,10.60
2018-05-17T02:30:06.301Z,10.60
2018-05-17T02:32:33.985Z,10.60
2018-05-17T02:35:01.528Z,10.70
2018-05-17T02:37:29.172Z,10.50
2018-05-17T02:39:56.711Z,10.40
2018-05-17T02:42:25.138Z,10.50
2018-05-17T02:44:52.692Z,10.50
2018-05-17T02:47:20.256Z,10.40
2018-05-17T02:49:47.840Z,10.50
2018-05-17T02:52:15.371Z,10.50
2018-05-17T02:54:43.081Z,10.50
2018-05-17T02:57:10.623Z,10.50
2018-05-17T02:59:38.296Z,10.40
2018-05-17T03:02:05.859Z,10.40
2018-05-17T03:04:34.398Z,10.30
2018-05-17T03:07:01.976Z,10.30
2018-05-17T03:09:30.371Z,10.40
2018-05-17T03:11:57.960Z,10.40
2018-05-17T03:14:25.727Z,10.50
2018-05-17T03:16:53.298Z,10.50
2018-05-17T03:19:20.847Z,10.50
2018-05-17T03:21:48.411Z,10.50
2018-05-17T03:24:16.091Z,10.50
2018-05-17T03:26:43.655Z,10.50
2018-05-17T03:29:11.223Z,10.50
2018-05-17T03:31:39.771Z,10.50
2018-05-17T03:34:07.535Z,10.50
2018-05-17T03:36:35.095Z,10.50
2018-05-17T03:39:02.664Z,10.50
2018-05-17T03:41:30.203Z,10.40
2018-05-17T03:43:57.911Z,10.30
2018-05-17T03:46:25.539Z,10.30
2018-05-17T03:48:53.179Z,10.30
2018-05-17T03:51:21.694Z,10.30
2018-05-17T03:53:49.256Z,10.30
2018-05-17T03:56:16.824Z,10.40
2018-05-17T03:58:44.367Z,10.50
2018-05-17T04:01:23.922Z,10.60
2018-05-17T04:04:03.358Z,10.60
2018-05-17T04:06:36.743Z,10.60
2018-05-17T04:09:04.289Z,10.50
2018-05-17T04:11:31.848Z,10.60
2018-05-17T04:13:59.458Z,10.50
2018-05-17T04:16:26.984Z,10.50
2018-05-17T04:18:54.723Z,10.50
2018-05-17T04:21:22.291Z,10.50
2018-05-17T04:23:49.855Z,10.40
2018-05-17T04:26:17.493Z,10.40
2018-05-17T04:28:44.987Z,10.40
2018-05-17T04:31:12.535Z,10.40
2018-05-17T04:33:40.119Z,10.40
2018-05-17T04:36:07.655Z,10.50
2018-05-17T04:38:35.243Z,10.50
2018-05-17T04:41:02.775Z,10.60
2018-05-17T04:43:30.342Z,10.50
2018-05-17T04:45:57.927Z,10.50
2018-05-17T04:48:25.472Z,10.50
2018-05-17T04:50:53.021Z,10.40
2018-05-17T04:53:20.592Z,10.50
2018-05-17T04:55:48.206Z,10.50
2018-05-17T04:58:15.895Z,10.50
2018-05-17T05:00:44.265Z,10.30
2018-05-17T05:03:11.925Z,10.30
2018-05-17T05:05:39.594Z,10.30
2018-05-17T05:08:07.159Z,10.30
2018-05-17T05:10:34.731Z,10.20
2018-05-17T05:13:03.132Z,10.10
2018-05-17T05:15:31.436Z,10.00
2018-05-17T05:17:59.056Z,10.00
2018-05-17T05:20:26.623Z,10.00
2018-05-17T05:22:54.151Z,10.00
2018-05-17T05:25:21.753Z,10.00
2018-05-17T05:27:49.247Z,10.00
2018-05-17T05:30:16.866Z,10.00
2018-05-17T05:32:45.174Z,10.10
2018-05-17T05:35:12.743Z,10.10
2018-05-17T05:37:40.457Z,10.00
2018-05-17T05:40:07.907Z,10.00
2018-05-17T05:42:35.463Z,10.10
2018-05-17T05:45:03.886Z,10.20
2018-05-17T05:47:31.479Z,10.10
2018-05-17T05:49:59.103Z,10.10
2018-05-17T05:52:26.811Z,10.00
2018-05-17T05:54:54.432Z,10.10
2018-05-17T05:57:22.008Z,10.10
2018-05-17T05:59:49.544Z,10.10
2018-05-17T06:02:17.125Z,10.00
2018-05-17T06:04:44.649Z,10.00
2018-05-17T06:07:13.009Z,10.20
2018-05-17T06:09:40.600Z,10.20
2018-05-17T06:12:08.183Z,10.20
2018-05-17T06:14:35.879Z,10.20
2018-05-17T06:17:04.956Z,10.20
2018-05-17T06:19:32.627Z,10.20
2018-05-17T06:22:00.188Z,10.20
2018-05-17T06:24:29.283Z,10.30
2018-05-17T06:26:56.859Z,10.30
2018-05-17T06:29:24.443Z,10.20
2018-05-17T06:31:52.027Z,10.30
2018-05-17T06:34:19.611Z,10.40
2018-05-17T06:36:47.168Z,10.50
2018-05-17T06:39:14.860Z,10.60
2018-05-17T06:41:43.295Z,10.60
2018-05-17T06:44:10.839Z,10.60
2018-05-17T06:46:39.394Z,10.80
2018-05-17T06:49:07.054Z,10.80
2018-05-17T06:51:35.379Z,10.80
2018-05-17T06:54:02.923Z,10.70
2018-05-17T06:56:30.487Z,10.70
2018-05-17T06:58:58.048Z,10.80
2018-05-17T07:01:25.760Z,10.80
2018-05-17T07:03:54.523Z,10.90
2018-05-17T07:06:22.091Z,10.90
2018-05-17T07:08:50.424Z,10.90
2018-05-17T07:11:17.962Z,10.90
2018-05-17T07:13:45.548Z,11.00
2018-05-17T07:16:13.076Z,11.00
2018-05-17T07:18:40.945Z,10.90
2018-05-17T07:21:08.931Z,10.90
2018-05-17T07:23:36.482Z,10.90
2018-05-17T07:26:04.130Z,10.90
2018-05-17T07:28:31.691Z,11.00
2018-05-17T07:30:59.303Z,10.80
2018-05-17T07:33:27.666Z,10.90
2018-05-17T07:35:55.202Z,10.90
2018-05-17T07:38:22.876Z,11.00
2018-05-17T07:40:50.424Z,11.00
2018-05-17T07:43:17.991Z,11.00
2018-05-17T07:45:46.373Z,11.10
2018-05-17T07:48:14.095Z,11.10
2018-05-17T07:50:41.660Z,11.10
2018-05-17T07:53:09.267Z,11.10
2018-05-17T07:55:36.933Z,11.10
2018-05-17T07:58:04.548Z,11.20
2018-05-17T08:00:32.238Z,11.30
2018-05-17T08:02:59.861Z,11.60
2018-05-17T08:05:28.373Z,12.00
2018-05-17T08:07:55.912Z,12.00
2018-05-17T08:10:23.544Z,12.30
2018-05-17T08:12:51.858Z,12.50
2018-05-17T08:15:19.436Z,12.50
2018-05-17T08:17:46.998Z,12.50
2018-05-17T08:20:14.660Z,12.60
2018-05-17T08:22:42.195Z,12.40
2018-05-17T08:25:09.836Z,12.30
2018-05-17T08:27:37.619Z,12.30
2018-05-17T08:30:05.916Z,11.90
2018-05-17T08:32:33.475Z,11.90
2018-05-17T08:35:01.047Z,11.80
2018-05-17T08:37:28.607Z,11.90
2018-05-17T08:39:56.199Z,12.00
2018-05-17T08:42:24.551Z,12.30
2018-05-17T08:44:52.107Z,12.30
2018-05-17T08:47:19.671Z,12.30
2018-05-17T08:49:47.259Z,12.30
2018-05-17T08:52:14.883Z,12.20
2018-05-17T08:54:43.427Z,12.20
2018-05-17T08:57:10.984Z,12.50
2018-05-17T08:59:38.551Z,12.50
2018-05-17T09:02:06.105Z,12.50
2018-05-17T09:04:33.683Z,12.40
2018-05-17T09:07:01.246Z,12.60
2018-05-17T09:09:28.835Z,12.40
2018-05-17T09:11:57.131Z,12.50
2018-05-17T09:14:24.703Z,12.50
2018-05-17T09:16:52.499Z,12.50
2018-05-17T09:19:20.106Z,12.50
2018-05-17T09:21:48.536Z,12.60
2018-05-17T09:24:16.205Z,12.60
2018-05-17T09:26:43.811Z,12.80
2018-05-17T09:29:11.451Z,12.90
2018-05-17T09:31:39.906Z,12.80
2018-05-17T09:34:07.492Z,12.80
2018-05-17T09:36:35.080Z,12.80
2018-05-17T09:39:02.621Z,13.10
2018-05-17T09:41:30.980Z,13.70
2018-05-17T09:43:58.554Z,13.60
2018-05-17T09:46:26.867Z,13.70
2018-05-17T09:48:54.420Z,13.70
2018-05-17T09:51:21.971Z,13.50
2018-05-17T09:53:49.547Z,13.40
2018-05-17T09:56:17.126Z,13.30
2018-05-17T09:58:44.723Z,13.20
2018-05-17T10:01:13.018Z,13.00
2018-05-17T10:03:40.616Z,13.00
2018-05-17T10:06:08.150Z,13.10
2018-05-17T10:08:35.734Z,13.10
2018-05-17T10:11:03.276Z,13.40
2018-05-17T10:13:30.825Z,13.60
2018-05-17T10:15:58.365Z,13.80
2018-05-17T10:18:26.048Z,13.80
2018-05-17T10:20:53.615Z,13.80
2018-05-17T10:23:21.306Z,13.80
2018-05-17T10:25:48.915Z,14.10
2018-05-17T10:28:16.454Z,14.30
2018-05-17T10:30:44.867Z,14.40
2018-05-17T10:33:12.524Z,14.40
2018-05-17T10:35:40.100Z,14.40
2018-05-17T10:38:07.636Z,14.40
2018-05-17T10:40:37.273Z,14.40
2018-05-17T10:43:04.812Z,14.20
2018-05-17T10:45:32.748Z,14.20
2018-05-17T10:48:01.100Z,14.00
2018-05-17T10:50:28.642Z,14.00
2018-05-17T10:52:56.211Z,14.10
2018-05-17T10:55:23.753Z,14.00
2018-05-17T10:57:51.310Z,14.00
2018-05-17T11:00:18.967Z,14.10
2018-05-17T11:02:47.254Z,14.20
2018-05-17T11:05:15.071Z,14.20
2018-05-17T11:07:43.060Z,14.20
2018-05-17T11:10:10.687Z,14.40
2018-05-17T11:12:38.986Z,14.60
2018-05-17T11:15:06.621Z,14.60
2018-05-17T11:17:34.944Z,14.40
2018-05-17T11:20:02.533Z,14.40
2018-05-17T11:22:30.136Z,14.40
2018-05-17T11:24:57.776Z,14.50
2018-05-17T11:27:26.281Z,14.70
2018-05-17T11:29:53.839Z,14.70
2018-05-17T11:32:21.516Z,14.90
2018-05-17T11:34:49.183Z,15.00
2018-05-17T11:37:16.731Z,15.10
2018-05-17T11:39:44.355Z,15.30
2018-05-17T11:42:12.650Z,15.50
2018-05-17T11:44:40.307Z,15.60
2018-05-17T11:47:08.023Z,15.60
2018-05-17T11:49:35.669Z,15.60
2018-05-17T11:52:03.220Z,15.50
2018-05-17T11:54:30.855Z,15.50
2018-05-17T11:56:58.442Z,15.60
2018-05-17T11:59:25.983Z,15.60
2018-05-17T12:01:53.543Z,15.70
2018-05-17T12:04:21.115Z,15.70
2018-05-17T12:06:48.736Z,15.70
2018-05-17T12:09:17.245Z,15.60
2018-05-17T12:11:44.818Z,15.60
2018-05-17T12:14:12.475Z,15.60
2018-05-17T12:16:40.119Z,15.60
2018-05-17T12:19:07.810Z,15.60
2018-05-17T12:21:35.391Z,15.60
2018-05-17T12:24:02.947Z,15.60
2018-05-17T12:26:30.508Z,15.70
2018-05-17T12:28:58.083Z,15.70
2018-05-17T12:31:26.400Z,15.90
2018-05-17T12:33:54.138Z,15.90
2018-05-17T12:36:21.768Z,15.90
2018-05-17T12:38:50.255Z,15.90
2018-05-17T12:41:18.860Z,16.00
2018-05-17T12:43:47.223Z,16.00
2018-05-17T12:46:14.931Z,16.00
2018-05-17T12:48:42.544Z,16.10
2018-05-17T12:51:10.235Z,16.10
2018-05-17T12:53:37.900Z,16.20
2018-05-17T12:56:05.447Z,16.20
2018-05-17T12:58:33.216Z,16.30
2018-05-17T13:01:00.691Z,16.30
2018-05-17T13:03:28.309Z,16.30
2018-05-17T13:05:56.736Z,16.20
2018-05-17T13:08:24.327Z,16.20
2018-05-17T13:10:52.793Z,16.20
2018-05-17T13:13:20.380Z,16.20
2018-05-17T13:15:48.005Z,16.20
2018-05-17T13:18:15.624Z,16.10
2018-05-17T13:20:43.199Z,16.10
2018-05-17T13:23:10.744Z,16.20
2018-05-17T13:25:38.508Z,16.20
2018-05-17T13:28:06.061Z,16.30
2018-05-17T13:30:34.371Z,16.40
2018-05-17T13:33:02.087Z,16.30
2018-05-17T13:35:30.395Z,16.20
2018-05-17T13:37:57.967Z,16.20
2018-05-17T13:40:25.663Z,16.20
2018-05-17T13:42:53.259Z,16.10
2018-05-17T13:45:20.821Z,16.10
2018-05-17T13:47:48.420Z,16.20
2018-05-17T13:50:15.986Z,16.20
2018-05-17T13:52:43.583Z,16.20
2018-05-17T13:55:11.893Z,16.20
2018-05-17T13:57:39.448Z,16.20
2018-05-17T14:00:07.008Z,16.30
2018-05-17T14:02:34.700Z,16.30
2018-05-17T14:05:02.137Z,16.30
2018-05-17T14:07:29.676Z,16.30
2018-05-17T14:09:57.230Z,16.40
2018-05-17T14:12:24.762Z,16.30
2018-05-17T14:14:52.327Z,16.30
2018-05-17T14:17:20.776Z,16.30
2018-05-17T14:19:48.314Z,16.20
2018-05-17T14:22:16.883Z,16.40
2018-05-17T14:24:44.440Z,16.30
2018-05-17T14:27:12.042Z,16.40
2018-05-17T14:29:39.710Z,16.40
2018-05-17T14:32:07.398Z,16.40
2018-05-17T14:34:35.735Z,16.40
2018-05-17T14:37:03.444Z,16.40
2018-05-17T14:39:31.231Z,16.50
2018-05-17T14:41:58.779Z,16.50
2018-05-17T14:44:26.343Z,16.50
2018-05-17T14:46:53.878Z,16.50
2018-05-17T14:49:22.213Z,16.50
2018-05-17T14:51:49.767Z,16.40
2018-05-17T14:54:17.479Z,16.50
2018-05-17T14:56:45.088Z,16.50
2018-05-17T14:59:12.735Z,16.50
2018-05-17T15:01:40.297Z,16.50
2018-05-17T15:04:07.872Z,16.50
2018-05-17T15:06:35.589Z,16.40
2018-05-17T15:09:03.159Z,16.40
2018-05-17T15:11:30.766Z,16.30
2018-05-17T15:13:58.340Z,16.30
2018-05-17T15:16:26.831Z,16.40
2018-05-17T15:18:55.247Z,16.40
2018-05-17T15:21:22.840Z,16.40
2018-05-17T15:23:50.547Z,16.50
2018-05-17T15:26:18.316Z,16.50
2018-05-17T15:28:45.903Z,16.60
2018-05-17T15:31:13.455Z,16.60
2018-05-17T15:33:41.034Z,16.60
2018-05-17T15:36:08.653Z,16.60
2018-05-17T15:38:36.225Z,16.60
2018-05-17T15:41:03.758Z,16.50
2018-05-17T15:43:31.403Z,16.50
2018-05-17T15:45:59.853Z,16.50
2018-05-17T15:48:27.452Z,16.40
2018-05-17T15:50:55.780Z,16.40
2018-05-17T15:53:23.367Z,16.40
2018-05-17T15:55:50.945Z,16.50
2018-05-17T15:58:19.244Z,16.50
2018-05-17T16:00:46.777Z,16.50
2018-05-17T16:03:14.433Z,16.50
2018-05-17T16:05:42.852Z,16.50
2018-05-17T16:08:10.445Z,16.50
2018-05-17T16:10:38.012Z,16.50
2018-05-17T16:13:05.600Z,16.50
2018-05-17T16:15:34.145Z,16.40
2018-05-17T16:18:01.591Z,16.30
2018-05-17T16:20:29.159Z,16.30
2018-05-17T16:22:56.843Z,16.20
2018-05-17T16:25:25.214Z,16.20
2018-05-17T16:27:53.615Z,16.20
2018-05-17T16:30:21.939Z,16.20
2018-05-17T16:32:49.622Z,16.10
2018-05-17T16:35:17.195Z,16.20
2018-05-17T16:37:44.736Z,16.10
2018-05-17T16:40:12.388Z,16.10
2018-05-17T16:42:39.966Z,16.10
2018-05-17T16:45:07.523Z,16.10
2018-05-17T16:47:35.096Z,16.00
2018-05-17T16:50:03.410Z,16.00
2018-05-17T16:52:31.023Z,15.90
2018-05-17T16:54:58.584Z,15.90
2018-05-17T16:57:26.172Z,15.90
2018-05-17T16:59:53.704Z,15.90
2018-05-17T17:02:22.156Z,15.90
2018-05-17T17:04:49.820Z,15.90
2018-05-17T17:07:17.410Z,15.90
2018-05-17T17:09:45.851Z,15.80
2018-05-17T17:12:13.463Z,15.80
2018-05-17T17:14:40.996Z,15.80
2018-05-17T17:17:09.339Z,15.80
2018-05-17T17:19:36.908Z,15.70
2018-05-17T17:22:04.438Z,15.70
2018-05-17T17:24:32.195Z,15.70
2018-05-17T17:26:59.768Z,15.60
2018-05-17T17:29:27.367Z,15.60
2018-05-17T17:31:54.988Z,15.50
2018-05-17T17:34:22.632Z,15.50
2018-05-17T17:36:50.157Z,15.50
2018-05-17T17:39:18.480Z,15.40
2018-05-17T17:41:46.141Z,15.40
2018-05-17T17:44:13.895Z,15.40
2018-05-17T17:46:42.184Z,15.40
2018-05-17T17:49:09.731Z,15.30
2018-05-17T17:51:37.305Z,15.30
2018-05-17T17:54:04.868Z,15.20
2018-05-17T17:56:32.418Z,15.20
2018-05-17T17:59:00.027Z,15.20
2018-05-17T18:01:28.354Z,15.00
2018-05-17T18:03:55.895Z,15.00
2018-05-17T18:06:23.455Z,14.90
2018-05-17T18:08:51.039Z,14.80
2018-05-17T18:11:18.600Z,14.80
2018-05-17T18:13:46.187Z,14.70
2018-05-17T18:16:13.746Z,14.60
2018-05-17T18:18:42.188Z,14.60
2018-05-17T18:21:09.779Z,14.50
2018-05-17T18:23:38.230Z,14.50
2018-05-17T18:26:05.779Z,14.40
2018-05-17T18:28:33.339Z,14.40
2018-05-17T18:31:00.963Z,14.30
2018-05-17T18:33:29.275Z,14.10
2018-05-17T18:35:56.896Z,14.10
2018-05-17T18:38:25.224Z,14.00
2018-05-17T18:40:52.814Z,14.00
2018-05-17T18:43:20.397Z,13.90
2018-05-17T18:45:48.755Z,13.80
2018-05-17T18:48:17.132Z,13.80
2018-05-17T18:50:45.575Z,13.80
2018-05-17T18:53:13.308Z,13.70
2018-05-17T18:55:40.852Z,13.70
2018-05-17T18:58:09.223Z,13.50
2018-05-17T19:00:37.563Z,13.50
2018-05-17T19:03:05.138Z,13.40
2018-05-17T19:05:32.703Z,13.40
2018-05-17T19:08:00.340Z,13.30
2018-05-17T19:10:27.912Z,13.30
2018-05-17T19:12:56.273Z,13.30
2018-05-17T19:15:23.853Z,13.20
2018-05-17T19:17:51.408Z,13.20
2018-05-17T19:20:19.026Z,13.20
2018-05-17T19:22:46.639Z,13.10
2018-05-17T19:25:14.200Z,13.00
2018-05-17T19:27:42.565Z,12.90
2018-05-17T19:30:11.198Z,12.90
2018-05-17T19:32:38.802Z,12.90
2018-05-17T19:35:06.355Z,12.90
2018-05-17T19:37:33.957Z,12.80
2018-05-17T19:40:01.540Z,12.80
2018-05-17T19:42:29.137Z,12.80
2018-05-17T19:44:56.715Z,12.80
2018-05-17T19:47:25.123Z,12.70
2018-05-17T19:49:52.775Z,12.70
2018-05-17T19:52:21.263Z,12.80
2018-05-17T19:54:48.853Z,12.70
2018-05-17T19:57:16.413Z,12.80
2018-05-17T19:59:44.008Z,12.80
2018-05-17T20:02:11.584Z,12.80
2018-05-17T20:04:39.935Z,12.80
2018-05-17T20:07:07.573Z,12.80
2018-05-17T20:09:35.197Z,12.80
2018-05-17T20:12:02.768Z,12.70
2018-05-17T20:14:30.372Z,12.80
2018-05-17T20:16:57.960Z,12.80
2018-05-17T20:19:26.293Z,12.70
2018-05-17T20:21:53.881Z,12.70
2018-05-17T20:24:22.232Z,12.80
2018-05-17T20:26:49.817Z,12.80
2018-05-17T20:29:18.263Z,12.70
2018-05-17T20:31:45.798Z,12.70
2018-05-17T20:34:13.381Z,12.70
2018-05-17T20:36:41.046Z,12.80
2018-05-17T20:39:09.428Z,12.80
2018-05-17T20:41:36.991Z,12.70
2018-05-17T20:44:04.571Z,12.70
2018-05-17T20:46:32.971Z,12.70
2018-05-17T20:49:00.543Z,12.70
2018-05-17T20:51:28.862Z,12.60
2018-05-17T20:53:56.420Z,12.60
2018-05-17T20:56:23.975Z,12.60
2018-05-17T20:58:51.544Z,12.70
2018-05-17T21:01:19.119Z,12.70
2018-05-17T21:03:46.696Z,12.70
2018-05-17T21:06:15.055Z,12.60
2018-05-17T21:08:43.432Z,12.50
2018-05-17T21:11:12.477Z,12.40
2018-05-17T21:13:40.040Z,12.50
2018-05-17T21:16:07.585Z,12.50
2018-05-17T21:18:35.119Z,12.50
2018-05-17T21:21:03.594Z,12.50
2018-05-17T21:23:31.814Z,12.50
2018-05-17T21:25:59.395Z,12.50
2018-05-17T21:28:27.000Z,12.50
2018-05-17T21:30:54.679Z,12.50
2018-05-17T21:33:22.236Z,12.40
2018-05-17T21:35:49.888Z,12.40
2018-05-17T21:38:17.567Z,12.40
2018-05-17T21:40:45.118Z,12.30
2018-05-17T21:43:12.676Z,12.30
2018-05-17T21:45:40.228Z,12.30
2018-05-17T21:48:07.780Z,12.30
2018-05-17T21:50:35.359Z,12.30
2018-05-17T21:53:04.023Z,12.10
2018-05-17T21:55:31.948Z,12.20
2018-05-17T21:57:59.472Z,12.20
2018-05-17T22:00:27.043Z,12.20
2018-05-17T22:02:54.616Z,12.20
2018-05-17T22:05:22.160Z,12.20
2018-05-17T22:07:49.775Z,12.20
2018-05-17T22:10:18.095Z,12.10
2018-05-17T22:12:45.643Z,12.10
2018-05-17T22:15:13.375Z,12.20
2018-05-17T22:17:41.079Z,12.10
2018-05-17T22:20:08.644Z,12.10
2018-05-17T22:22:36.199Z,12.10
2018-05-17T22:25:03.772Z,12.00
2018-05-17T22:27:31.344Z,12.00
2018-05-17T22:29:58.926Z,12.00
2018-05-17T22:32:27.436Z,12.00
2018-05-17T22:34:55.031Z,12.00
2018-05-17T22:37:22.600Z,12.00
2018-05-17T22:39:50.151Z,11.90
2018-05-17T22:42:19.249Z,11.90
2018-05-17T22:44:46.778Z,11.90
2018-05-17T22:47:14.433Z,11.80
2018-05-17T22:49:42.052Z,11.80
2018-05-17T22:52:10.375Z,11.70
2018-05-17T22:54:37.921Z,11.70
2018-05-17T22:57:12.348Z,11.70
2018-05-17T22:59:39.916Z,11.70
2018-05-17T23:02:07.490Z,11.80
2018-05-17T23:04:35.042Z,11.90
2018-05-17T23:07:02.679Z,11.80
2018-05-17T23:09:30.935Z,11.70
2018-05-17T23:11:58.535Z,11.70
2018-05-17T23:14:26.083Z,11.70
2018-05-17T23:16:53.668Z,11.60
2018-05-17T23:19:21.367Z,11.60
2018-05-17T23:21:49.064Z,11.60
2018-05-17T23:24:16.607Z,11.60
2018-05-17T23:26:44.136Z,11.60
2018-05-17T23:29:12.467Z,11.60
2018-05-17T23:31:40.007Z,11.50
2018-05-17T23:34:07.563Z,11.60
2018-05-17T23:36:35.107Z,11.60
2018-05-17T23:39:02.662Z,11.60
2018-05-17T23:41:36.059Z,11.60
2018-05-17T23:44:03.783Z,11.60
2018-05-17T23:46:32.079Z,11.60
2018-05-17T23:49:00.406Z,11.60
2018-05-17T23:51:27.983Z,11.50
2018-05-17T23:53:56.476Z,11.50
2018-05-17T23:56:24.048Z,11.50
2018-05-17T23:58:52.398Z,11.50
